createdAt,value
2022-09-01T00:00:41.987Z,1.92
2022-09-01T00:03:12.521Z,1.50
2022-09-01T00:05:38.825Z,1.63
2022-09-01T00:08:05.337Z,1.80
2022-09-01T00:10:31.648Z,1.95
2022-09-01T00:12:58.201Z,1.75
2022-09-01T00:15:24.738Z,1.90
2022-09-01T00:17:51.165Z,1.90
2022-09-01T00:20:20.473Z,2.00
2022-09-01T00:22:47.672Z,2.30
2022-09-01T00:25:14.024Z,1.90
2022-09-01T00:27:40.445Z,2.25
2022-09-01T00:30:07.730Z,2.08
2022-09-01T00:32:34.105Z,2.08
2022-09-01T00:35:00.474Z,2.00
2022-09-01T00:37:27.020Z,2.20
2022-09-01T00:39:53.363Z,2.10
2022-09-01T00:42:19.884Z,1.60
2022-09-01T00:44:46.284Z,1.90
2022-09-01T00:47:13.479Z,2.08
2022-09-01T00:49:44.935Z,1.98
2022-09-01T00:52:17.291Z,2.28
2022-09-01T00:54:45.545Z,2.15
2022-09-01T00:57:13.051Z,1.90
2022-09-01T00:59:43.457Z,2.00
2022-09-01T01:02:11.157Z,1.83
2022-09-01T01:04:37.640Z,2.00
2022-09-01T01:07:04.103Z,1.83
2022-09-01T01:09:32.703Z,2.13
2022-09-01T01:12:00.108Z,2.00
2022-09-01T01:14:31.839Z,1.83
2022-09-01T01:16:58.718Z,2.20
2022-09-01T01:19:52.760Z,1.90
2022-09-01T01:22:45.491Z,2.03
2022-09-01T01:25:12.769Z,1.90
2022-09-01T01:27:43.129Z,2.20
2022-09-01T01:30:11.040Z,2.17
2022-09-01T01:32:42.491Z,2.10
2022-09-01T01:35:13.812Z,2.20
2022-09-01T01:37:45.758Z,2.05
2022-09-01T01:40:15.678Z,2.00
2022-09-01T01:42:44.205Z,2.08
2022-09-01T01:45:12.857Z,2.10
2022-09-01T01:47:39.317Z,1.83
2022-09-01T01:50:09.271Z,2.03
2022-09-01T01:52:36.380Z,2.08
2022-09-01T01:55:09.829Z,1.90
2022-09-01T01:57:37.303Z,2.10
2022-09-01T02:00:04.431Z,2.15
2022-09-01T02:02:40.005Z,2.00
2022-09-01T02:05:06.799Z,1.92
2022-09-01T02:07:33.766Z,2.08
2022-09-01T02:10:01.822Z,2.17
2022-09-01T02:12:28.177Z,1.98
2022-09-01T02:14:54.976Z,2.00
2022-09-01T02:17:22.302Z,2.00
2022-09-01T02:19:49.277Z,2.38
2022-09-01T02:22:15.663Z,2.15
2022-09-01T02:24:47.992Z,2.40
2022-09-01T02:27:15.638Z,2.20
2022-09-01T02:29:43.638Z,2.40
2022-09-01T02:32:11.540Z,2.42
2022-09-01T02:34:39.336Z,2.20
2022-09-01T02:37:06.019Z,2.33
2022-09-01T02:39:35.417Z,2.38
2022-09-01T02:42:01.805Z,2.10
2022-09-01T02:44:30.936Z,2.55
2022-09-01T02:46:58.708Z,2.20
2022-09-01T02:49:28.140Z,2.00
2022-09-01T02:52:01.203Z,2.22
2022-09-01T02:54:30.864Z,2.20
2022-09-01T02:56:57.312Z,2.53
2022-09-01T02:59:26.214Z,2.30
2022-09-01T03:01:54.002Z,2.53
2022-09-01T03:04:21.827Z,2.20
2022-09-01T03:06:49.760Z,2.15
2022-09-01T03:09:17.303Z,2.47
2022-09-01T03:11:47.035Z,2.40
2022-09-01T03:14:14.212Z,2.45
2022-09-01T03:16:41.221Z,2.40
2022-09-01T03:19:09.060Z,2.55
2022-09-01T03:21:36.294Z,2.45
2022-09-01T03:24:04.092Z,2.30
2022-09-01T03:26:30.956Z,2.30
2022-09-01T03:28:57.749Z,2.22
2022-09-01T03:31:27.463Z,2.30
2022-09-01T03:33:58.869Z,2.30
2022-09-01T03:36:30.900Z,2.45
2022-09-01T03:38:57.696Z,2.50
2022-09-01T03:41:28.294Z,2.20
2022-09-01T03:43:54.952Z,2.33
2022-09-01T03:46:22.236Z,2.28
2022-09-01T03:48:52.028Z,2.40
2022-09-01T03:51:20.575Z,2.40
2022-09-01T03:53:47.224Z,2.40
2022-09-01T03:56:15.099Z,2.40
2022-09-01T03:58:46.988Z,2.40
2022-09-01T04:01:16.158Z,2.50
2022-09-01T04:03:46.817Z,2.75
2022-09-01T04:06:13.563Z,2.63
2022-09-01T04:08:40.547Z,2.50
2022-09-01T04:11:13.828Z,2.30
2022-09-01T04:13:40.919Z,2.50
2022-09-01T04:16:30.913Z,2.53
2022-09-01T04:18:57.707Z,2.70
2022-09-01T04:21:24.235Z,2.30
2022-09-01T04:23:50.792Z,2.75
2022-09-01T04:26:20.397Z,2.53
2022-09-01T04:28:48.192Z,3.08
2022-09-01T04:31:17.705Z,2.40
2022-09-01T04:33:46.616Z,2.65
2022-09-01T04:36:19.640Z,2.50
2022-09-01T04:38:47.467Z,2.70
2022-09-01T04:41:17.772Z,2.50
2022-09-01T04:43:47.216Z,2.67
2022-09-01T04:46:17.189Z,2.47
2022-09-01T04:48:45.077Z,2.90
2022-09-01T04:51:15.337Z,2.50
2022-09-01T04:53:56.140Z,2.60
2022-09-01T04:56:23.178Z,2.50
2022-09-01T04:59:15.579Z,2.70
2022-09-01T05:01:46.597Z,2.53
2022-09-01T05:04:17.793Z,2.70
2022-09-01T05:06:54.433Z,2.50
2022-09-01T05:09:20.848Z,2.67
2022-09-01T05:12:16.801Z,2.60
2022-09-01T05:14:48.314Z,2.47
2022-09-01T05:17:17.563Z,2.40
2022-09-01T05:19:47.561Z,2.63
2022-09-01T05:22:15.702Z,2.63
2022-09-01T05:24:46.794Z,2.70
2022-09-01T05:27:14.512Z,2.45
2022-09-01T05:29:45.720Z,2.45
2022-09-01T05:32:12.887Z,2.50
2022-09-01T05:34:39.995Z,2.53
2022-09-01T05:37:08.458Z,2.47
2022-09-01T05:39:37.929Z,2.50
2022-09-01T05:42:07.901Z,2.40
2022-09-01T05:44:36.104Z,2.50
2022-09-01T05:47:05.331Z,2.60
2022-09-01T05:49:33.035Z,2.60
2022-09-01T05:52:02.276Z,2.60
2022-09-01T05:54:32.471Z,2.45
2022-09-01T05:57:12.667Z,2.40
2022-09-01T05:59:48.845Z,2.58
2022-09-01T06:02:21.682Z,2.20
2022-09-01T06:04:48.921Z,2.30
2022-09-01T06:09:53.561Z,2.47
2022-09-01T06:12:23.724Z,2.38
2022-09-01T06:14:51.181Z,2.40
2022-09-01T06:17:21.929Z,2.30
2022-09-01T06:19:48.939Z,2.50
2022-09-01T06:22:16.976Z,2.60
2022-09-01T06:24:44.962Z,2.42
2022-09-01T06:27:12.822Z,2.85
2022-09-01T06:29:39.778Z,2.40
2022-09-01T06:32:09.605Z,2.30
2022-09-01T06:34:39.251Z,2.40
2022-09-01T06:37:06.884Z,2.47
2022-09-01T06:39:34.341Z,2.40
2022-09-01T06:42:04.759Z,2.20
2022-09-01T06:44:44.112Z,2.40
2022-09-01T06:47:10.451Z,2.50
2022-09-01T06:49:40.087Z,2.20
2022-09-01T06:52:11.732Z,2.40
2022-09-01T06:54:39.524Z,2.55
2022-09-01T06:59:54.037Z,2.78
2022-09-01T07:02:26.465Z,2.53
2022-09-01T07:08:10.569Z,2.03
2022-09-01T07:11:22.121Z,2.40
2022-09-01T07:14:20.503Z,2.20
2022-09-01T07:16:51.974Z,2.30
2022-09-01T07:19:20.430Z,2.17
2022-09-01T07:22:08.616Z,2.33
2022-09-01T07:24:39.974Z,2.40
2022-09-01T07:27:35.628Z,2.10
2022-09-01T07:30:03.326Z,1.95
2022-09-01T07:35:19.821Z,2.00
2022-09-01T07:38:47.423Z,2.10
2022-09-01T07:42:31.699Z,2.00
2022-09-01T07:43:44.706Z,2.10
2022-09-01T07:49:29.784Z,2.13
2022-09-01T07:51:55.462Z,2.20
2022-09-01T07:54:23.879Z,2.10
2022-09-01T07:56:50.785Z,2.13
2022-09-01T07:59:18.224Z,2.20
2022-09-01T08:01:52.790Z,2.30
2022-09-01T08:04:22.846Z,2.08
2022-09-01T08:06:49.522Z,2.13
2022-09-01T08:09:27.306Z,2.00
2022-09-01T08:12:02.225Z,2.15
2022-09-01T08:14:34.798Z,2.08
2022-09-01T08:17:16.808Z,2.30
2022-09-01T08:19:46.863Z,2.17
2022-09-01T08:22:24.054Z,2.17
2022-09-01T08:25:07.790Z,2.00
2022-09-01T08:27:36.412Z,1.92
2022-09-01T08:30:04.603Z,1.95
2022-09-01T08:32:32.164Z,2.28
2022-09-01T08:34:59.269Z,2.13
2022-09-01T08:37:25.788Z,2.42
2022-09-01T08:39:52.307Z,1.95
2022-09-01T08:42:31.898Z,1.88
2022-09-01T08:45:03.925Z,1.90
2022-09-01T08:47:44.352Z,2.15
2022-09-01T08:50:20.582Z,2.20
2022-09-01T08:53:09.759Z,2.30
2022-09-01T08:55:45.192Z,2.25
2022-09-01T08:58:15.461Z,1.70
2022-09-01T09:01:04.883Z,2.00
2022-09-01T09:03:40.728Z,2.10
2022-09-01T09:06:31.641Z,2.10
2022-09-01T09:08:59.683Z,1.90
2022-09-01T09:11:31.853Z,1.80
2022-09-01T09:14:01.188Z,1.60
2022-09-01T09:16:30.057Z,2.10
2022-09-01T09:19:00.173Z,1.90
2022-09-01T09:21:29.966Z,1.80
2022-09-01T09:24:21.181Z,2.20
2022-09-01T09:26:52.865Z,2.40
2022-09-01T09:29:21.322Z,2.05
2022-09-01T09:32:01.243Z,1.90
2022-09-01T09:34:27.663Z,1.80
2022-09-01T09:36:55.418Z,2.10
2022-09-01T09:39:23.483Z,1.70
2022-09-01T09:42:10.358Z,2.05
2022-09-01T09:44:45.124Z,2.30
2022-09-01T09:47:43.005Z,1.80
2022-09-01T09:50:17.261Z,2.00
2022-09-01T09:52:46.777Z,1.98
2022-09-01T09:55:42.567Z,1.98
2022-09-01T09:58:10.724Z,2.03
2022-09-01T10:00:37.572Z,2.03
2022-09-01T10:03:08.930Z,2.20
2022-09-01T10:05:53.421Z,2.10
2022-09-01T10:08:37.104Z,1.98
2022-09-01T10:11:04.281Z,1.90
2022-09-01T10:13:32.976Z,1.90
2022-09-01T10:16:09.131Z,1.90
2022-09-01T10:18:39.591Z,1.73
2022-09-01T10:21:11.954Z,1.90
2022-09-01T10:23:38.890Z,2.10
2022-09-01T10:26:11.172Z,1.90
2022-09-01T10:28:41.144Z,1.95
2022-09-01T10:31:16.353Z,2.00
2022-09-01T10:33:42.905Z,1.70
2022-09-01T10:36:09.771Z,1.70
2022-09-01T10:38:36.307Z,2.00
2022-09-01T10:41:14.037Z,1.75
2022-09-01T10:43:43.875Z,1.75
2022-09-01T10:46:42.408Z,1.70
2022-09-01T10:49:25.148Z,1.73
2022-09-01T10:51:56.473Z,2.20
2022-09-01T10:54:56.990Z,1.98
2022-09-01T10:57:43.283Z,2.00
2022-09-01T11:03:31.866Z,1.88
2022-09-01T11:06:13.114Z,1.90
2022-09-01T11:08:39.685Z,1.67
2022-09-01T11:11:05.969Z,2.03
2022-09-01T11:14:13.357Z,1.98
2022-09-01T11:16:47.998Z,1.83
2022-09-01T11:19:36.083Z,1.58
2022-09-01T11:22:03.868Z,1.85
2022-09-01T11:24:39.261Z,2.00
2022-09-01T11:27:07.699Z,1.70
2022-09-01T11:29:52.917Z,1.80
2022-09-01T11:32:24.261Z,1.83
2022-09-01T11:34:51.414Z,1.95
2022-09-01T11:37:20.833Z,1.75
2022-09-01T11:39:55.232Z,1.65
2022-09-01T11:42:27.711Z,1.60
2022-09-01T11:45:01.982Z,1.70
2022-09-01T11:47:34.282Z,1.65
2022-09-01T11:50:02.325Z,1.80
2022-09-01T11:52:34.158Z,1.55
2022-09-01T11:55:00.720Z,1.80
2022-09-01T11:57:27.844Z,1.88
2022-09-01T11:59:54.492Z,1.80
2022-09-01T12:02:23.076Z,1.83
2022-09-01T12:04:50.644Z,1.63
2022-09-01T12:07:32.192Z,2.10
2022-09-01T12:09:58.537Z,1.90
2022-09-01T12:12:35.440Z,2.00
2022-09-01T12:15:07.126Z,1.95
2022-09-01T12:17:34.323Z,1.92
2022-09-01T12:20:19.365Z,1.80
2022-09-01T12:22:45.862Z,1.60
2022-09-01T12:25:20.426Z,1.88
2022-09-01T12:27:46.989Z,1.90
2022-09-01T12:30:13.972Z,1.80
2022-09-01T12:32:40.391Z,1.58
2022-09-01T12:35:14.853Z,2.10
2022-09-01T12:37:41.313Z,1.92
2022-09-01T12:40:21.360Z,1.73
2022-09-01T12:42:51.587Z,2.20
2022-09-01T12:45:36.079Z,1.63
2022-09-01T12:48:02.563Z,1.80
2022-09-01T12:50:29.799Z,1.80
2022-09-01T12:52:58.222Z,1.63
2022-09-01T12:55:47.921Z,1.95
2022-09-01T12:58:20.445Z,1.67
2022-09-01T13:00:56.159Z,1.50
2022-09-01T13:03:23.289Z,1.80
2022-09-01T13:05:51.787Z,1.80
2022-09-01T13:08:38.573Z,2.00
2022-09-01T13:11:06.628Z,1.90
2022-09-01T13:13:35.174Z,1.90
2022-09-01T13:16:04.258Z,1.90
2022-09-01T13:18:30.760Z,1.80
2022-09-01T13:20:57.965Z,1.98
2022-09-01T13:23:24.679Z,1.77
2022-09-01T13:25:51.137Z,1.60
2022-09-01T13:28:17.955Z,1.90
2022-09-01T13:30:46.737Z,1.98
2022-09-01T13:33:23.368Z,1.70
2022-09-01T13:35:50.289Z,1.98
2022-09-01T13:38:16.994Z,1.90
2022-09-01T13:40:45.454Z,1.80
2022-09-01T13:43:12.372Z,2.28
2022-09-01T13:45:40.842Z,2.30
2022-09-01T13:48:16.609Z,2.10
2022-09-01T13:53:33.703Z,2.13
2022-09-01T13:56:00.294Z,2.00
2022-09-01T13:58:26.684Z,2.22
2022-09-01T14:00:53.095Z,2.20
2022-09-01T14:03:21.793Z,2.33
2022-09-01T14:05:49.377Z,2.30
2022-09-01T14:08:17.482Z,2.13
2022-09-01T14:10:45.444Z,2.25
2022-09-01T14:13:12.213Z,1.90
2022-09-01T14:15:38.676Z,2.08
2022-09-01T14:18:05.325Z,1.98
2022-09-01T14:20:36.990Z,1.70
2022-09-01T14:23:04.460Z,1.80
2022-09-01T14:25:31.483Z,1.75
2022-09-01T14:27:57.803Z,1.90
2022-09-01T14:30:31.018Z,2.10
2022-09-01T14:32:59.372Z,1.92
2022-09-01T14:35:26.316Z,2.15
2022-09-01T14:37:53.752Z,1.80
2022-09-01T14:40:23.942Z,1.90
2022-09-01T14:42:52.381Z,2.03
2022-09-01T14:45:20.871Z,1.85
2022-09-01T14:47:48.464Z,1.75
2022-09-01T14:50:19.896Z,2.03
2022-09-01T14:52:49.646Z,2.00
2022-09-01T14:55:16.956Z,2.20
2022-09-01T14:57:43.387Z,2.03
2022-09-01T15:00:11.917Z,1.80
2022-09-01T15:02:39.388Z,1.88
2022-09-01T15:05:06.439Z,1.98
2022-09-01T15:07:33.002Z,1.90
2022-09-01T15:09:59.393Z,1.80
2022-09-01T15:12:31.661Z,2.10
2022-09-01T15:14:58.896Z,2.10
2022-09-01T15:17:25.918Z,2.05
2022-09-01T15:19:53.361Z,1.80
2022-09-01T15:22:20.257Z,2.03
2022-09-01T15:24:47.085Z,1.63
2022-09-01T15:27:13.458Z,1.70
2022-09-01T15:29:47.881Z,1.80
2022-09-01T15:32:27.431Z,2.05
2022-09-01T15:34:55.008Z,1.80
2022-09-01T15:37:21.355Z,1.60
2022-09-01T15:39:47.694Z,1.85
2022-09-01T15:44:43.435Z,1.85
2022-09-01T15:47:09.850Z,2.05
2022-09-01T15:49:36.192Z,1.95
2022-09-01T15:52:02.835Z,1.63
2022-09-01T15:54:30.735Z,1.90
2022-09-01T15:56:57.544Z,1.90
2022-09-01T15:59:23.888Z,2.05
2022-09-01T16:01:51.202Z,1.60
2022-09-01T16:04:20.805Z,1.92
2022-09-01T16:06:49.384Z,1.83
2022-09-01T16:09:15.758Z,1.70
2022-09-01T16:11:42.181Z,1.90
2022-09-01T16:14:08.675Z,1.90
2022-09-01T16:16:59.605Z,1.63
2022-09-01T16:19:38.973Z,2.08
2022-09-01T16:22:06.002Z,1.67
2022-09-01T16:24:39.016Z,1.88
2022-09-01T16:27:07.411Z,2.20
2022-09-01T16:29:51.637Z,2.10
2022-09-01T16:32:21.241Z,2.00
2022-09-01T16:34:48.115Z,2.03
2022-09-01T16:37:33.357Z,1.70
2022-09-01T16:40:10.801Z,1.60
2022-09-01T16:42:49.046Z,2.10
2022-09-01T16:45:15.459Z,2.00
2022-09-01T16:47:47.969Z,2.03
2022-09-01T16:50:17.322Z,2.30
2022-09-01T16:53:13.993Z,2.15
2022-09-01T16:55:43.069Z,1.90
2022-09-01T16:58:18.968Z,1.90
2022-09-01T17:00:57.735Z,2.00
2022-09-01T17:03:42.751Z,2.10
2022-09-01T17:08:46.117Z,1.75
2022-09-01T17:11:20.981Z,2.20
2022-09-01T17:13:51.772Z,1.85
2022-09-01T17:16:21.347Z,2.20
2022-09-01T17:18:57.347Z,2.05
2022-09-01T17:21:30.059Z,1.90
2022-09-01T17:24:12.312Z,1.67
2022-09-01T17:26:39.916Z,1.80
2022-09-01T17:29:07.065Z,2.10
2022-09-01T17:31:57.970Z,2.10
2022-09-01T17:34:24.290Z,2.00
2022-09-01T17:36:50.605Z,1.90
2022-09-01T17:39:27.736Z,1.90
2022-09-01T17:41:56.286Z,2.10
2022-09-01T17:44:35.531Z,2.05
2022-09-01T17:47:14.141Z,2.10
2022-09-01T17:49:43.639Z,2.10
2022-09-01T17:52:16.039Z,1.88
2022-09-01T17:54:59.949Z,2.05
2022-09-01T17:57:32.811Z,1.95
2022-09-01T18:00:05.041Z,2.05
2022-09-01T18:03:02.367Z,1.98
2022-09-01T18:05:34.472Z,2.30
2022-09-01T18:08:11.363Z,1.92
2022-09-01T18:10:40.324Z,2.17
2022-09-01T18:13:09.827Z,2.15
2022-09-01T18:15:48.989Z,2.15
2022-09-01T18:18:33.235Z,2.22
2022-09-01T18:21:20.373Z,1.98
2022-09-01T18:23:48.890Z,2.05
2022-09-01T18:26:29.536Z,2.10
2022-09-01T18:28:56.471Z,2.00
2022-09-01T18:31:35.802Z,2.40
2022-09-01T18:34:09.971Z,2.35
2022-09-01T18:39:25.569Z,1.85
2022-09-01T18:42:10.886Z,1.80
2022-09-01T18:44:49.769Z,2.10
2022-09-01T18:47:17.399Z,2.63
2022-09-01T18:49:49.626Z,2.50
2022-09-01T18:54:53.480Z,1.85
2022-09-01T18:57:21.206Z,1.90
2022-09-01T19:00:17.864Z,2.15
2022-09-01T19:03:04.681Z,2.00
2022-09-01T19:05:49.934Z,2.40
2022-09-01T19:08:32.705Z,2.20
2022-09-01T19:11:11.057Z,2.40
2022-09-01T19:13:46.575Z,2.13
2022-09-01T19:16:20.595Z,1.85
2022-09-01T19:18:49.066Z,2.47
2022-09-01T19:21:21.518Z,2.15
2022-09-01T19:24:02.049Z,2.58
2022-09-01T19:26:30.754Z,2.47
2022-09-01T19:29:16.757Z,2.40
2022-09-01T19:31:45.432Z,2.33
2022-09-01T19:34:15.159Z,2.10
2022-09-01T19:36:49.779Z,2.20
2022-09-01T19:39:18.200Z,1.92
2022-09-01T19:41:51.237Z,1.92
2022-09-01T19:44:20.683Z,2.20
2022-09-01T19:46:52.191Z,2.10
2022-09-01T19:49:37.621Z,2.08
2022-09-01T19:52:04.063Z,2.15
2022-09-01T19:54:51.888Z,2.13
2022-09-01T19:57:22.590Z,1.98
2022-09-01T20:00:05.714Z,1.90
2022-09-01T20:02:40.314Z,2.40
2022-09-01T20:05:18.836Z,2.07
2022-09-01T20:07:57.305Z,2.03
2022-09-01T20:10:23.810Z,1.70
2022-09-01T20:13:11.793Z,1.85
2022-09-01T20:15:41.200Z,1.88
2022-09-01T20:18:10.381Z,2.38
2022-09-01T20:20:45.104Z,2.17
2022-09-01T20:23:23.923Z,1.90
2022-09-01T20:25:56.527Z,2.35
2022-09-01T20:28:32.458Z,2.08
2022-09-01T20:31:03.084Z,1.90
2022-09-01T20:33:41.679Z,1.95
2022-09-01T20:36:34.303Z,2.17
2022-09-01T20:39:22.756Z,1.85
2022-09-01T20:41:57.376Z,1.88
2022-09-01T20:44:35.778Z,2.25
2022-09-01T20:47:04.983Z,2.10
2022-09-01T20:49:32.410Z,1.98
2022-09-01T20:52:22.120Z,1.92
2022-09-01T20:54:55.101Z,1.90
2022-09-01T20:57:41.794Z,1.92
2022-09-01T21:00:10.003Z,1.77
2022-09-01T21:02:48.216Z,1.77
2022-09-01T21:05:22.483Z,2.10
2022-09-01T21:07:56.100Z,1.60
2022-09-01T21:13:01.578Z,1.98
2022-09-01T21:15:27.864Z,1.58
2022-09-01T21:17:59.911Z,1.70
2022-09-01T21:20:34.952Z,1.80
2022-09-01T21:23:01.502Z,1.63
2022-09-01T21:25:30.096Z,1.63
2022-09-01T21:27:58.514Z,1.70
2022-09-01T21:30:25.735Z,1.85
2022-09-01T21:32:56.946Z,1.90
2022-09-01T21:35:23.980Z,1.65
2022-09-01T21:37:50.861Z,1.70
2022-09-01T21:40:17.967Z,1.77
2022-09-01T21:42:47.260Z,1.50
2022-09-01T21:45:14.998Z,1.60
2022-09-01T21:47:42.548Z,1.88
2022-09-01T21:50:09.329Z,1.73
2022-09-01T21:52:35.626Z,1.70
2022-09-01T21:55:01.958Z,1.58
2022-09-01T21:57:28.423Z,1.85
2022-09-01T21:59:54.742Z,2.03
2022-09-01T22:02:21.165Z,1.70
2022-09-01T22:04:48.826Z,1.77
2022-09-01T22:07:16.917Z,1.60
2022-09-01T22:09:44.207Z,1.63
2022-09-01T22:12:10.875Z,1.90
2022-09-01T22:14:37.197Z,1.80
2022-09-01T22:17:04.451Z,1.90
2022-09-01T22:19:34.484Z,1.77
2022-09-01T22:22:01.102Z,1.85
2022-09-01T22:24:27.654Z,1.77
2022-09-01T22:26:53.986Z,1.85
2022-09-01T22:29:20.360Z,1.75
2022-09-01T22:31:46.770Z,1.80
2022-09-01T22:34:13.157Z,1.70
2022-09-01T22:36:41.571Z,1.67
2022-09-01T22:39:09.303Z,1.83
2022-09-01T22:41:36.449Z,1.75
2022-09-01T22:44:03.637Z,1.70
2022-09-01T22:46:30.653Z,1.80
2022-09-01T22:48:58.155Z,1.60
2022-09-01T22:51:25.084Z,1.83
2022-09-01T22:53:52.409Z,1.73
2022-09-01T22:56:21.768Z,1.67
2022-09-01T22:58:48.952Z,1.52
2022-09-01T23:01:16.854Z,1.50
2022-09-01T23:03:44.114Z,1.70
2022-09-01T23:06:27.435Z,1.90
2022-09-01T23:08:54.384Z,1.67
2022-09-01T23:11:21.280Z,1.40
2022-09-01T23:13:47.599Z,2.08
2022-09-01T23:16:14.594Z,1.70
2022-09-01T23:18:42.772Z,1.50
2022-09-01T23:21:10.554Z,1.50
2022-09-01T23:23:37.328Z,1.63
2022-09-01T23:26:04.710Z,1.50
2022-09-01T23:28:31.093Z,1.70
2022-09-01T23:30:57.486Z,1.63
2022-09-01T23:33:24.633Z,1.48
2022-09-01T23:35:52.909Z,1.50
2022-09-01T23:38:20.124Z,1.98
2022-09-01T23:40:49.451Z,1.88
2022-09-01T23:43:16.655Z,1.60
2022-09-01T23:45:44.495Z,1.50
2022-09-01T23:48:14.355Z,1.85
2022-09-01T23:50:42.258Z,1.80
2022-09-01T23:53:08.840Z,1.83
2022-09-01T23:55:41.291Z,1.70
2022-09-01T23:58:07.620Z,1.50
